Airport Name : Dortmund

Other Name : Dortmund

ICAO : EDLW

IATA : DTM

FAA :

Latitude : 51.518314

Longitude : 7.612242

Country : Germany

Local Date and Time : 25 Nov 2020 14:31

 

TAF (Terminal Aerodrome Forecast)

TAF EDLW 251100Z 2512/2612 18009KT CAVOK

 

METAR (METeorological Aerodrome Report)

EDLW 251320Z 20008KT CAVOK 09/04 Q1017

EDLW 251250Z 18009KT CAVOK 10/04 Q1017

EDLW 251220Z 18009KT CAVOK 09/04 Q1017

EDLW 251150Z 19010KT CAVOK 09/03 Q1017

EDLW 251120Z 19010KT CAVOK 09/04 Q1017

EDLW 251050Z 18010KT CAVOK 09/04 Q1017

EDLW 251020Z 18012KT CAVOK 09/03 Q1017

EDLW 250950Z 17011KT CAVOK 08/03 Q1017

To Charter a Jet Click here.